Hourly Reports from 6 nearest airdromes.

 

EGHI - Southampton Wx C, United Kingdom
Distance from station: NNW 4mi, 7km
Updated: Sun, 25-Jul-2021 15:20 BST
Mostly Cloudy
Mostly Cloudy
 Wind from NNW
Wind: NNW 10 mph , 17 km/h
Temperature: 21°C
Dew Point: 16°C
Humidity: 73%
Barometer: 1008 hPa
Clouds: Mostly Cloudy
Visibility: 6 miles , 10 km
Cloud details: Mostly Cloudy 610 m
2021/07/25 14:20 EGHI 251420Z 34009KT 290V020 9999 BKN020 21/16 Q1008
EGVP - Middle Wallop, United Kingdom
Distance from station: NW 20mi, 32km
Updated: Sun, 25-Jul-2021 14:50 BST
Light rain, Overcast
Light rain, Overcast
 Wind from NNW
Wind: NNW 8 mph , 13 km/h
Temperature: 18°C
Dew Point: 16°C
Humidity: 88%
Barometer: 1008 hPa
Summary: Light Rain
Clouds: Overcast
Visibility: 2 miles , 4 km
Cloud details: Overcast 305 m
2021/07/25 13:50 EGVP 251350Z AUTO 34007KT 4000 -RA OVC010/// 18/16 Q1008
 
EGHH - Bournemouth Airp, United Kingdom
Distance from station: WSW 25mi, 40km
Updated: Sun, 25-Jul-2021 15:20 BST
Mostly Cloudy
Mostly Cloudy
 Wind from N
Wind: N 10 mph , 17 km/h
Temperature: 20°C
Dew Point: 16°C
Humidity: 78%
Barometer: 1008 hPa
Clouds: Mostly Cloudy
Visibility: 6 miles , 10 km
Cloud details: Few Clouds 457 m
Mostly Cloudy 701 m
2021/07/25 14:20 EGHH 251420Z 35009KT 300V060 9999 FEW015 BKN023 20/16 Q1008
EGDM - Boscombe Down, United Kingdom
Distance from station: NW 27mi, 43km
Updated: Sun, 25-Jul-2021 14:50 BST
Overcast
Overcast
 Wind from N
Wind: N 12 mph , 19 km/h
Temperature: 18°C
Dew Point: 15°C
Humidity: 83%
Barometer: 1008 hPa
Clouds: Overcast
Cloud details: Overcast 305 m
2021/07/25 13:50 EGDM 251350Z AUTO 36010KT //// // OVC010/// 18/15 Q1008
 
EGVO - Odiham Raf, United Kingdom
Distance from station: NNE 28mi, 44km
Updated: Sun, 25-Jul-2021 14:50 BST
Mostly Cloudy
Mostly Cloudy
 Wind from NNW
Wind: NNW 13 mph , 20 km/h
Temperature: 20°C
Dew Point: 16°C
Humidity: 78%
Barometer: 1007 hPa
Clouds: Mostly Cloudy
Visibility: 6 miles , 10 km
Cloud details: Partly Cloudy 457 m
Mostly Cloudy 610 m
2021/07/25 13:50 EGVO 251350Z AUTO 33011KT 9999 SCT015/// BKN020/// 20/16 Q1007 RERA
EGLF - Farnborough, United Kingdom
Distance from station: NE 35mi, 57km
Updated: Sun, 25-Jul-2021 15:20 BST
Few Clouds
Few Clouds
 Wind from N
Wind: N 14 mph , 22 km/h
Temperature: 20°C
Dew Point: 16°C
Humidity: 78%
Barometer: 1007 hPa
Clouds: Few Clouds
Visibility: 6 miles , 10 km
Cloud details: Few Clouds 549 m
2021/07/25 14:20 EGLF 251420Z AUTO 35012KT 9999 FEW018/// 20/16 Q1007

Metar display script from Saratoga-Weather.org